createdAt,value
2019-05-13T00:12:23.993Z,98097.41
2019-05-13T00:14:54.119Z,98101.31
2019-05-13T00:17:24.429Z,98096.50
2019-05-13T00:19:54.589Z,98100.77
2019-05-13T00:22:24.876Z,98097.25
2019-05-13T00:24:54.996Z,98099.14
2019-05-13T00:27:25.152Z,98101.41
2019-05-13T00:29:55.372Z,98101.89
2019-05-13T00:32:25.761Z,98103.20
2019-05-13T00:34:55.916Z,98092.55
2019-05-13T00:37:26.205Z,98099.72
2019-05-13T00:39:56.732Z,98095.64
2019-05-13T00:42:26.894Z,98100.61
2019-05-13T00:44:57.112Z,98096.67
2019-05-13T00:47:27.192Z,98089.77
2019-05-13T00:49:57.349Z,98088.23
2019-05-13T00:52:27.841Z,98086.80
2019-05-13T00:54:58.355Z,98078.56
2019-05-13T00:57:28.711Z,98074.31
2019-05-13T00:59:59.025Z,98077.11
2019-05-13T01:02:29.601Z,98076.88
2019-05-13T01:05:00.102Z,98077.63
2019-05-13T01:07:30.618Z,98079.64
2019-05-13T01:10:01.147Z,98080.19
2019-05-13T01:12:31.567Z,98071.49
2019-05-13T01:15:04.023Z,98080.29
2019-05-13T01:17:35.419Z,98073.67
2019-05-13T01:20:08.016Z,98076.17
2019-05-13T01:22:38.077Z,98078.09
2019-05-13T01:25:08.539Z,98070.85
2019-05-13T01:27:38.752Z,98063.06
2019-05-13T01:30:13.218Z,98062.11
2019-05-13T01:32:44.877Z,98063.28
2019-05-13T01:35:15.602Z,98062.27
2019-05-13T01:37:46.294Z,98063.88
2019-05-13T01:40:16.698Z,98067.08
2019-05-13T01:42:46.712Z,98067.23
2019-05-13T01:45:17.148Z,98072.70
2019-05-13T01:47:47.755Z,98074.89
2019-05-13T01:50:17.878Z,98077.46
2019-05-13T01:52:48.141Z,98078.44
2019-05-13T01:55:18.804Z,98077.78
2019-05-13T01:57:49.467Z,98081.81
2019-05-13T02:00:19.827Z,98078.10
2019-05-13T02:02:50.047Z,98081.49
2019-05-13T02:05:20.571Z,98089.03
2019-05-13T02:07:57.648Z,98094.23
2019-05-13T02:10:44.357Z,98095.47
2019-05-13T02:13:14.742Z,98094.80
2019-05-13T02:15:45.303Z,98092.23
2019-05-13T02:18:15.981Z,98091.83
2019-05-13T02:20:46.464Z,98092.50
2019-05-13T02:23:16.585Z,98091.52
2019-05-13T02:25:46.950Z,98085.75
2019-05-13T02:28:17.139Z,98100.91
2019-05-13T02:30:47.286Z,98103.87
2019-05-13T02:33:17.716Z,98097.38
2019-05-13T02:35:47.793Z,98098.45
2019-05-13T02:38:24.441Z,98094.59
2019-05-13T02:40:52.622Z,98092.48
2019-05-13T02:43:23.945Z,98093.59
2019-05-13T02:45:55.234Z,98092.97
2019-05-13T02:48:25.493Z,98095.48
2019-05-13T02:50:55.879Z,98097.63
2019-05-13T02:53:27.134Z,98105.98
2019-05-13T02:55:57.759Z,98108.64
2019-05-13T02:58:28.086Z,98100.03
2019-05-13T03:00:58.408Z,98102.21
2019-05-13T03:03:28.865Z,98101.33
2019-05-13T03:06:02.568Z,98100.92
2019-05-13T03:08:44.821Z,98103.06
2019-05-13T03:11:03.365Z,98108.30
2019-05-13T03:13:33.927Z,98103.14
2019-05-13T03:16:32.534Z,98109.02
2019-05-13T03:19:02.887Z,98114.31
2019-05-13T03:21:33.578Z,98112.30
2019-05-13T03:24:04.095Z,98116.23
2019-05-13T03:26:34.460Z,98113.47
2019-05-13T03:29:04.710Z,98116.25
2019-05-13T03:31:36.293Z,98121.16
2019-05-13T03:34:07.600Z,98122.83
2019-05-13T03:36:45.481Z,98118.07
2019-05-13T03:39:16.081Z,98118.41
2019-05-13T03:41:48.239Z,98119.98
2019-05-13T03:44:23.732Z,98116.93
2019-05-13T03:46:56.816Z,98119.39
2019-05-13T03:49:32.833Z,98113.45
2019-05-13T03:52:03.574Z,98118.17
2019-05-13T03:54:34.528Z,98121.48
2019-05-13T03:57:04.701Z,98126.59
2019-05-13T03:59:35.322Z,98120.98
2019-05-13T04:02:05.699Z,98123.40
2019-05-13T04:04:35.802Z,98124.46
2019-05-13T04:07:06.011Z,98131.37
2019-05-13T04:09:42.435Z,98130.84
2019-05-13T04:12:13.518Z,98135.97
2019-05-13T04:14:44.071Z,98139.83
2019-05-13T04:17:14.472Z,98151.02
2019-05-13T04:19:44.623Z,98150.70
2019-05-13T04:22:14.811Z,98153.88
2019-05-13T04:24:45.153Z,98149.05
2019-05-13T04:27:15.680Z,98147.93
2019-05-13T04:29:46.768Z,98148.91
2019-05-13T04:32:17.995Z,98150.94
2019-05-13T04:34:48.971Z,98151.55
2019-05-13T04:37:22.080Z,98140.00
2019-05-13T04:39:55.831Z,98142.67
2019-05-13T04:42:23.886Z,98143.63
2019-05-13T04:44:55.445Z,98140.59
2019-05-13T04:47:27.082Z,98144.09
2019-05-13T04:49:57.451Z,98138.70
2019-05-13T04:52:27.767Z,98141.61
2019-05-13T04:54:58.698Z,98146.37
2019-05-13T04:57:29.410Z,98150.63
2019-05-13T05:00:03.626Z,98152.84
2019-05-13T05:03:04.897Z,98146.68
2019-05-13T05:06:16.763Z,98153.04
2019-05-13T05:09:17.126Z,98154.41
2019-05-13T05:12:35.642Z,98154.51
2019-05-13T05:16:04.184Z,98156.33
2019-05-13T05:19:23.870Z,98164.13
2019-05-13T05:22:23.881Z,98169.05
2019-05-13T05:25:18.735Z,98173.56
2019-05-13T05:28:34.870Z,98174.67
2019-05-13T05:31:51.813Z,98181.91
2019-05-13T05:35:38.672Z,98180.04
2019-05-13T05:38:46.925Z,98175.10
2019-05-13T05:41:22.149Z,98170.14
2019-05-13T05:43:56.168Z,98169.02
2019-05-13T05:46:29.220Z,98167.67
2019-05-13T05:49:05.380Z,98164.66
2019-05-13T05:51:37.038Z,98169.91
2019-05-13T05:54:14.313Z,98168.91
2019-05-13T05:56:42.334Z,98173.83
2019-05-13T05:59:12.676Z,98175.35
2019-05-13T06:01:47.482Z,98170.20
2019-05-13T06:04:21.442Z,98168.80
2019-05-13T06:06:52.255Z,98169.14
2019-05-13T06:09:22.716Z,98160.80
2019-05-13T06:11:53.949Z,98162.22
2019-05-13T06:14:24.490Z,98161.62
2019-05-13T06:16:54.749Z,98158.90
2019-05-13T06:19:25.081Z,98163.26
2019-05-13T06:21:55.472Z,98160.59
2019-05-13T06:24:26.943Z,98162.98
2019-05-13T06:26:57.235Z,98158.79
2019-05-13T06:29:31.645Z,98163.45
2019-05-13T06:32:17.587Z,98160.11
2019-05-13T06:34:34.011Z,98165.93
2019-05-13T06:37:04.296Z,98165.39
2019-05-13T06:39:34.393Z,98175.16
2019-05-13T06:42:04.517Z,98168.09
2019-05-13T06:44:34.566Z,98161.61
2019-05-13T06:47:04.737Z,98158.13
2019-05-13T06:49:34.883Z,98162.45
2019-05-13T06:52:04.951Z,98162.87
2019-05-13T06:54:35.126Z,98166.90
2019-05-13T06:57:06.164Z,98168.36
2019-05-13T06:59:36.469Z,98166.82
2019-05-13T07:02:06.763Z,98154.09
2019-05-13T07:04:36.814Z,98156.97
2019-05-13T07:07:13.194Z,98162.48
2019-05-13T07:09:38.735Z,98160.95
2019-05-13T07:12:11.209Z,98161.43
2019-05-13T07:14:41.433Z,98163.55
2019-05-13T07:17:12.399Z,98170.78
2019-05-13T07:19:43.173Z,98169.92
2019-05-13T07:22:13.265Z,98165.78
2019-05-13T07:24:43.541Z,98167.28
2019-05-13T07:27:14.131Z,98161.20
2019-05-13T07:29:44.457Z,98166.28
2019-05-13T07:32:14.820Z,98163.08
2019-05-13T07:34:45.205Z,98163.85
2019-05-13T07:37:15.531Z,98159.67
2019-05-13T07:39:46.983Z,98163.73
2019-05-13T07:42:44.615Z,98169.98
2019-05-13T07:45:15.164Z,98166.34
2019-05-13T07:47:45.087Z,98164.98
2019-05-13T07:50:15.317Z,98158.19
2019-05-13T07:52:45.352Z,98169.50
2019-05-13T07:55:16.541Z,98164.02
2019-05-13T07:57:46.661Z,98168.02
2019-05-13T08:00:18.022Z,98163.50
2019-05-13T08:02:48.116Z,98165.36
2019-05-13T08:05:18.591Z,98163.47
2019-05-13T08:07:51.370Z,98161.75
2019-05-13T08:10:21.995Z,98153.23
2019-05-13T08:12:52.157Z,98151.22
2019-05-13T08:15:22.613Z,98149.86
2019-05-13T08:17:52.973Z,98146.59
2019-05-13T08:20:23.258Z,98155.05
2019-05-13T08:22:53.595Z,98149.44
2019-05-13T08:25:23.843Z,98151.25
2019-05-13T08:27:53.829Z,98143.68
2019-05-13T08:30:23.813Z,98150.11
2019-05-13T08:32:54.110Z,98142.17
2019-05-13T08:35:24.362Z,98155.99
2019-05-13T08:37:54.541Z,98150.59
2019-05-13T08:40:26.041Z,98144.36
2019-05-13T08:42:56.210Z,98140.60
2019-05-13T08:45:26.841Z,98135.73
2019-05-13T08:47:57.371Z,98136.20
2019-05-13T08:50:27.834Z,98129.66
2019-05-13T08:52:58.026Z,98128.34
2019-05-13T08:55:28.285Z,98123.38
2019-05-13T08:57:58.567Z,98138.22
2019-05-13T09:00:54.844Z,98131.30
2019-05-13T09:03:25.760Z,98141.30
2019-05-13T09:05:56.714Z,98137.99
2019-05-13T09:08:27.250Z,98140.66
2019-05-13T09:10:57.631Z,98126.80
2019-05-13T09:13:28.090Z,98130.47
2019-05-13T09:15:58.482Z,98128.86
2019-05-13T09:18:31.326Z,98134.73
2019-05-13T09:21:02.845Z,98126.68
2019-05-13T09:23:33.767Z,98123.42
2019-05-13T09:26:27.770Z,98128.41
2019-05-13T09:28:57.784Z,98130.23
2019-05-13T09:31:28.021Z,98123.22
2019-05-13T09:33:58.303Z,98123.21
2019-05-13T09:36:28.623Z,98128.59
2019-05-13T09:38:58.980Z,98128.25
2019-05-13T09:41:31.790Z,98134.87
2019-05-13T09:44:01.993Z,98122.40
2019-05-13T09:46:32.578Z,98129.53
2019-05-13T09:49:14.881Z,98140.98
2019-05-13T09:51:35.284Z,98130.27
2019-05-13T09:54:05.789Z,98125.07
2019-05-13T09:56:35.854Z,98123.16
2019-05-13T09:59:06.885Z,98123.48
2019-05-13T10:01:37.046Z,98131.16
2019-05-13T10:04:07.145Z,98136.73
2019-05-13T10:06:37.154Z,98134.46
2019-05-13T10:09:08.747Z,98129.73
2019-05-13T10:11:38.818Z,98129.38
2019-05-13T10:14:11.318Z,98130.24
2019-05-13T10:16:42.573Z,98130.17
2019-05-13T10:19:13.007Z,98132.05
2019-05-13T10:21:43.298Z,98129.19
2019-05-13T10:24:13.937Z,98122.36
2019-05-13T10:26:45.039Z,98116.91
2019-05-13T10:29:15.706Z,98114.75
2019-05-13T10:31:45.993Z,98110.75
2019-05-13T10:34:16.248Z,98111.94
2019-05-13T10:36:46.948Z,98112.70
2019-05-13T10:39:17.204Z,98114.27
2019-05-13T10:41:47.308Z,98114.87
2019-05-13T10:44:29.696Z,98115.77
2019-05-13T10:47:02.030Z,98113.44
2019-05-13T10:49:33.051Z,98104.98
2019-05-13T10:52:03.580Z,98111.63
2019-05-13T10:54:33.734Z,98101.15
2019-05-13T10:57:04.297Z,98106.16
2019-05-13T10:59:35.051Z,98104.68
2019-05-13T11:02:05.448Z,98101.08
2019-05-13T11:04:35.612Z,98105.16
2019-05-13T11:07:05.925Z,98102.45
2019-05-13T11:09:36.451Z,98097.19
2019-05-13T11:12:07.391Z,98099.89
2019-05-13T11:14:37.579Z,98102.92
2019-05-13T11:17:08.861Z,98103.51
2019-05-13T11:19:38.949Z,98098.34
2019-05-13T11:22:12.104Z,98096.88
2019-05-13T11:24:43.116Z,98095.13
2019-05-13T11:27:12.945Z,98092.11
2019-05-13T11:29:42.864Z,98103.24
2019-05-13T11:32:13.484Z,98097.48
2019-05-13T11:34:43.781Z,98100.22
2019-05-13T11:37:13.909Z,98095.06
2019-05-13T11:39:44.196Z,98087.60
2019-05-13T11:42:14.470Z,98096.13
2019-05-13T11:44:44.464Z,98081.20
2019-05-13T11:47:14.374Z,98078.54
2019-05-13T11:49:44.628Z,98079.10
2019-05-13T11:52:15.044Z,98086.00
2019-05-13T11:54:44.998Z,98075.74
2019-05-13T11:57:15.016Z,98078.98
2019-05-13T11:59:45.179Z,98078.81
2019-05-13T12:02:15.273Z,98075.38
2019-05-13T12:04:45.210Z,98072.07
2019-05-13T12:07:15.233Z,98068.78
2019-05-13T12:09:45.299Z,98076.65
2019-05-13T12:12:15.407Z,98085.66
2019-05-13T12:15:16.226Z,98067.31
2019-05-13T12:17:17.424Z,98067.69
2019-05-13T12:19:48.425Z,98071.97
2019-05-13T12:22:22.715Z,98078.02
2019-05-13T12:24:51.573Z,98068.73
2019-05-13T12:27:22.553Z,98073.36
2019-05-13T12:29:53.339Z,98053.53
2019-05-13T12:32:24.588Z,98068.40
2019-05-13T12:34:56.897Z,98073.61
2019-05-13T12:37:28.395Z,98077.86
2019-05-13T12:39:59.083Z,98064.87
2019-05-13T12:42:29.367Z,98076.11
2019-05-13T12:45:08.389Z,98077.39
2019-05-13T12:47:31.495Z,98066.82
2019-05-13T12:50:03.622Z,98065.69
2019-05-13T12:52:34.355Z,98057.72
2019-05-13T12:55:05.582Z,98067.80
2019-05-13T12:57:36.517Z,98070.74
2019-05-13T13:00:08.447Z,98063.71
2019-05-13T13:02:48.201Z,98060.44
2019-05-13T13:05:20.012Z,98064.87
2019-05-13T13:08:12.168Z,98052.13
2019-05-13T13:10:22.873Z,98057.98
2019-05-13T13:12:54.601Z,98057.80
2019-05-13T13:15:37.167Z,98068.33
2019-05-13T13:17:55.655Z,98054.33
2019-05-13T13:20:26.177Z,98060.70
2019-05-13T13:22:56.362Z,98048.97
2019-05-13T13:25:26.724Z,98038.59
2019-05-13T13:28:10.177Z,98044.63
2019-05-13T13:30:35.143Z,98046.92
2019-05-13T13:33:03.292Z,98049.39
2019-05-13T13:35:34.088Z,98048.91
2019-05-13T13:38:04.704Z,98044.34
2019-05-13T13:40:35.670Z,98041.91
2019-05-13T13:43:06.227Z,98050.95
2019-05-13T13:46:06.062Z,98040.66
2019-05-13T13:48:13.400Z,98035.75
2019-05-13T13:50:44.281Z,98037.02
2019-05-13T13:53:15.983Z,98030.47
2019-05-13T13:55:46.964Z,98036.37
2019-05-13T13:58:17.189Z,98032.97
2019-05-13T14:01:01.698Z,98021.27
2019-05-13T14:03:22.287Z,98032.55
2019-05-13T14:05:54.079Z,98030.45
2019-05-13T14:08:24.555Z,98034.03
2019-05-13T14:10:54.777Z,98018.74
2019-05-13T14:13:24.795Z,98021.42
2019-05-13T14:15:55.086Z,98021.09
2019-05-13T14:18:27.096Z,98030.20
2019-05-13T14:20:57.542Z,98018.50
2019-05-13T14:23:27.790Z,98021.61
2019-05-13T14:25:58.159Z,98018.53
2019-05-13T14:28:28.382Z,98019.39
2019-05-13T14:30:58.849Z,97998.58
2019-05-13T14:33:32.507Z,98008.05
2019-05-13T14:36:01.665Z,98004.81
2019-05-13T14:38:32.618Z,97996.35
2019-05-13T14:41:04.340Z,97996.00
2019-05-13T14:43:34.881Z,97999.58
2019-05-13T14:46:06.453Z,97993.39
2019-05-13T14:48:37.594Z,97989.95
2019-05-13T14:51:07.955Z,97984.41
2019-05-13T14:53:41.616Z,97989.63
2019-05-13T14:56:14.289Z,97981.65
2019-05-13T14:58:43.571Z,97986.08
2019-05-13T15:01:18.636Z,97983.80
2019-05-13T15:03:45.579Z,97976.14
2019-05-13T15:06:16.519Z,97974.67
2019-05-13T15:08:46.880Z,97982.98
2019-05-13T15:11:16.962Z,97978.23
2019-05-13T15:13:57.254Z,97976.74
2019-05-13T15:16:28.202Z,97982.27
2019-05-13T15:19:01.602Z,97977.95
2019-05-13T15:21:32.292Z,97982.67
2019-05-13T15:24:02.555Z,97988.98
2019-05-13T15:26:34.000Z,97983.42
2019-05-13T15:29:11.415Z,97982.45
2019-05-13T15:31:42.899Z,97982.91
2019-05-13T15:34:13.224Z,97983.18
2019-05-13T15:36:43.454Z,97983.34
2019-05-13T15:39:13.707Z,97978.43
2019-05-13T15:41:44.093Z,97971.41
2019-05-13T15:44:17.387Z,97977.23
2019-05-13T15:46:48.413Z,97970.06
2019-05-13T15:49:18.688Z,97975.25
2019-05-13T15:51:51.064Z,97973.97
2019-05-13T15:54:22.217Z,97976.55
2019-05-13T15:56:52.695Z,97973.25
2019-05-13T15:59:22.849Z,97969.66
2019-05-13T16:01:53.137Z,97967.66
2019-05-13T16:04:23.395Z,97966.36
2019-05-13T16:06:53.785Z,97975.81
2019-05-13T16:09:23.942Z,97958.56
2019-05-13T16:11:54.233Z,97970.27
2019-05-13T16:14:24.977Z,97980.69
2019-05-13T16:16:55.701Z,97975.28
2019-05-13T16:19:25.919Z,97979.02
2019-05-13T16:21:56.756Z,97968.09
2019-05-13T16:24:27.078Z,97971.33
2019-05-13T16:26:57.609Z,97975.05
2019-05-13T16:29:27.868Z,97977.65
2019-05-13T16:31:58.160Z,97974.91
2019-05-13T16:34:28.579Z,97975.56
2019-05-13T16:37:01.634Z,97967.08
2019-05-13T16:39:31.826Z,97968.52
2019-05-13T16:42:02.422Z,97968.19
2019-05-13T16:44:32.777Z,97971.69
2019-05-13T16:47:03.068Z,97972.44
2019-05-13T16:49:33.136Z,97966.69
2019-05-13T16:52:03.626Z,97974.13
2019-05-13T16:54:33.854Z,97975.03
2019-05-13T16:57:03.881Z,97975.16
2019-05-13T16:59:34.170Z,97975.47
2019-05-13T17:02:04.313Z,97979.18
2019-05-13T17:04:34.277Z,97975.61
2019-05-13T17:07:04.434Z,97979.82
2019-05-13T17:09:34.617Z,97974.92
2019-05-13T17:12:05.003Z,97983.49
2019-05-13T17:14:35.189Z,97981.50
2019-05-13T17:17:05.732Z,97977.23
2019-05-13T17:19:35.979Z,97979.60
2019-05-13T17:22:06.616Z,97979.58
2019-05-13T17:24:36.863Z,97980.67
2019-05-13T17:27:07.272Z,97979.66
2019-05-13T17:29:37.622Z,97979.47
2019-05-13T17:32:07.992Z,97985.42
2019-05-13T17:34:38.534Z,97979.70
2019-05-13T17:37:08.610Z,97982.73
2019-05-13T17:39:41.344Z,97978.45
2019-05-13T17:42:12.196Z,97981.19
2019-05-13T17:44:46.257Z,97983.91
2019-05-13T17:47:14.778Z,97982.39
2019-05-13T17:49:45.111Z,97979.58
2019-05-13T17:52:15.392Z,97973.66
2019-05-13T17:54:45.592Z,97981.91
2019-05-13T17:57:15.917Z,97976.34
2019-05-13T17:59:45.807Z,97985.21
2019-05-13T18:02:15.930Z,97983.34
2019-05-13T18:04:45.948Z,97986.51
2019-05-13T18:07:16.251Z,97989.37
2019-05-13T18:09:46.321Z,97987.08
2019-05-13T18:12:16.648Z,97987.47
2019-05-13T18:14:46.806Z,97985.52
2019-05-13T18:17:16.883Z,97985.50
2019-05-13T18:19:46.855Z,97986.92
2019-05-13T18:22:17.369Z,97980.22
2019-05-13T18:24:47.556Z,97979.83
2019-05-13T18:27:17.613Z,97979.31
2019-05-13T18:29:47.959Z,97977.31
2019-05-13T18:32:18.354Z,97974.58
2019-05-13T18:34:48.642Z,97971.77
2019-05-13T18:37:18.693Z,97972.16
2019-05-13T18:39:48.733Z,97970.64
2019-05-13T18:42:18.885Z,97975.27
2019-05-13T18:44:51.249Z,97976.66
2019-05-13T18:47:22.075Z,97981.34
2019-05-13T18:49:52.368Z,97975.23
2019-05-13T18:52:22.654Z,97980.36
2019-05-13T18:54:53.026Z,97990.15
2019-05-13T18:57:23.314Z,97990.41
2019-05-13T18:59:53.711Z,97990.69
2019-05-13T19:02:23.746Z,97989.32
2019-05-13T19:04:53.862Z,97991.48
2019-05-13T19:07:24.278Z,97993.03
2019-05-13T19:09:54.487Z,97998.11
2019-05-13T19:12:25.829Z,97996.94
2019-05-13T19:14:55.983Z,97996.02
2019-05-13T19:17:26.103Z,97994.16
2019-05-13T19:19:56.132Z,97998.78
2019-05-13T19:22:26.234Z,97998.34
2019-05-13T19:24:56.188Z,98000.37
2019-05-13T19:27:26.149Z,97999.80
2019-05-13T19:29:56.310Z,97999.52
2019-05-13T19:32:26.426Z,98005.44
2019-05-13T19:34:56.412Z,98001.63
2019-05-13T19:37:26.510Z,97999.92
2019-05-13T19:40:01.196Z,98000.98
2019-05-13T19:42:31.494Z,98004.41
2019-05-13T19:45:02.034Z,98006.27
2019-05-13T19:47:32.339Z,98008.49
2019-05-13T19:50:02.610Z,98008.37
2019-05-13T19:52:32.704Z,98009.78
2019-05-13T19:55:02.800Z,98010.30
2019-05-13T19:57:32.914Z,98009.89
2019-05-13T20:00:03.311Z,98009.14
2019-05-13T20:02:33.303Z,98013.26
2019-05-13T20:05:03.475Z,98012.20
2019-05-13T20:07:33.446Z,98011.42
2019-05-13T20:10:03.694Z,98008.58
2019-05-13T20:12:34.095Z,98008.16
2019-05-13T20:15:05.745Z,98011.31
2019-05-13T20:17:36.030Z,98004.09
2019-05-13T20:20:07.110Z,97999.97
2019-05-13T20:22:37.855Z,98001.21
2019-05-13T20:25:10.297Z,98003.98
2019-05-13T20:27:42.136Z,98001.47
2019-05-13T20:30:15.019Z,98004.59
2019-05-13T20:32:45.827Z,98006.97
2019-05-13T20:35:17.130Z,98008.17
2019-05-13T20:37:47.258Z,98000.79
2019-05-13T20:40:17.593Z,98007.17
2019-05-13T20:42:48.049Z,98006.46
2019-05-13T20:45:18.398Z,98011.05
2019-05-13T20:47:48.688Z,98007.88
2019-05-13T20:50:21.487Z,98008.15
2019-05-13T20:52:51.608Z,98015.49
2019-05-13T20:55:23.039Z,98009.61
2019-05-13T20:57:53.310Z,98006.77
2019-05-13T21:00:23.826Z,98003.31
2019-05-13T21:02:53.775Z,97998.85
2019-05-13T21:05:23.962Z,98002.48
2019-05-13T21:07:54.222Z,98007.42
2019-05-13T21:10:24.343Z,98002.47
2019-05-13T21:12:54.629Z,98006.13
2019-05-13T21:15:25.771Z,97999.93
2019-05-13T21:17:55.827Z,97995.31
2019-05-13T21:20:26.226Z,98000.75
2019-05-13T21:22:56.483Z,97994.01
2019-05-13T21:25:26.806Z,97986.00
2019-05-13T21:27:57.190Z,97997.64
2019-05-13T21:30:27.445Z,97994.46
2019-05-13T21:32:57.667Z,97992.74
2019-05-13T21:35:27.965Z,97995.44
2019-05-13T21:38:01.285Z,97991.13
2019-05-13T21:40:32.089Z,97996.03
2019-05-13T21:43:02.300Z,97993.96
2019-05-13T21:45:32.572Z,97996.86
2019-05-13T21:48:03.159Z,97997.30
2019-05-13T21:50:37.203Z,97995.28
2019-05-13T21:53:05.251Z,97995.39
2019-05-13T21:55:35.974Z,97995.61
2019-05-13T21:58:06.300Z,97989.52
2019-05-13T22:00:42.771Z,97993.00
2019-05-13T22:03:13.037Z,97992.51
2019-05-13T22:05:43.554Z,97994.86
2019-05-13T22:08:13.879Z,97998.95
2019-05-13T22:10:44.370Z,97990.55
2019-05-13T22:13:14.915Z,97994.19
2019-05-13T22:15:45.223Z,97995.91
2019-05-13T22:18:15.760Z,97995.38
2019-05-13T22:20:50.456Z,97995.15
2019-05-13T22:23:18.243Z,97992.34
2019-05-13T22:25:48.669Z,97991.22
2019-05-13T22:28:18.995Z,97984.88
2019-05-13T22:30:51.650Z,97988.90
2019-05-13T22:33:21.612Z,97983.09
2019-05-13T22:35:52.434Z,97987.39
2019-05-13T22:38:22.852Z,97984.75
2019-05-13T22:40:53.083Z,97974.95
2019-05-13T22:43:23.432Z,97977.31
2019-05-13T22:45:55.363Z,97976.05
2019-05-13T22:48:25.585Z,97975.28
2019-05-13T22:51:01.175Z,97973.45
2019-05-13T22:53:31.836Z,97970.16
2019-05-13T22:56:02.329Z,97961.77
2019-05-13T22:58:32.612Z,97960.63
2019-05-13T23:01:03.393Z,97954.97
2019-05-13T23:03:33.756Z,97960.47
2019-05-13T23:06:04.099Z,97961.69
2019-05-13T23:08:34.216Z,97965.59
2019-05-13T23:11:04.435Z,97964.78
2019-05-13T23:13:34.700Z,97957.28
2019-05-13T23:16:05.023Z,97951.41
2019-05-13T23:18:36.536Z,97953.07
2019-05-13T23:21:06.860Z,97948.84
2019-05-13T23:23:37.118Z,97949.95
2019-05-13T23:26:07.477Z,97946.31
2019-05-13T23:28:37.834Z,97945.66
2019-05-13T23:31:08.509Z,97939.72
2019-05-13T23:33:38.827Z,97939.16
2019-05-13T23:36:09.255Z,97937.11
2019-05-13T23:38:41.356Z,97929.63
2019-05-13T23:41:11.821Z,97930.52
2019-05-13T23:43:42.100Z,97931.11
2019-05-13T23:46:12.317Z,97931.20
2019-05-13T23:48:42.998Z,97921.38
2019-05-13T23:51:13.564Z,97928.14
2019-05-13T23:53:43.747Z,97933.34
2019-05-13T23:56:13.782Z,97924.23
2019-05-13T23:58:43.716Z,97921.45
